sensor_id;sensor_type;location;lat;lon;timestamp;temperature;humidity
9125;DHT22;4597;48.730;9.114;2023-04-03T00:01:30;5.50;99.90
9125;DHT22;4597;48.730;9.114;2023-04-03T00:03:56;5.60;99.90
9125;DHT22;4597;48.730;9.114;2023-04-03T00:06:22;5.50;99.90
9125;DHT22;4597;48.730;9.114;2023-04-03T00:08:49;5.50;99.90
9125;DHT22;4597;48.730;9.114;2023-04-03T00:11:14;5.50;99.90
9125;DHT22;4597;48.730;9.114;2023-04-03T00:13:41;5.60;99.90
9125;DHT22;4597;48.730;9.114;2023-04-03T00:16:07;5.50;99.90
9125;DHT22;4597;48.730;9.114;2023-04-03T00:18:33;5.50;99.90
9125;DHT22;4597;48.730;9.114;2023-04-03T00:20:59;5.50;99.90
9125;DHT22;4597;48.730;9.114;2023-04-03T00:23:25;5.50;99.90
9125;DHT22;4597;48.730;9.114;2023-04-03T00:25:51;5.40;99.90
9125;DHT22;4597;48.730;9.114;2023-04-03T00:28:16;5.40;99.90
9125;DHT22;4597;48.730;9.114;2023-04-03T00:30:42;5.40;99.90
9125;DHT22;4597;48.730;9.114;2023-04-03T00:33:08;5.40;99.90
9125;DHT22;4597;48.730;9.114;2023-04-03T00:35:35;5.40;99.90
9125;DHT22;4597;48.730;9.114;2023-04-03T00:38:00;5.40;99.90
9125;DHT22;4597;48.730;9.114;2023-04-03T00:40:27;5.40;99.90
9125;DHT22;4597;48.730;9.114;2023-04-03T00:42:57;5.40;99.90
9125;DHT22;4597;48.730;9.114;2023-04-03T00:45:31;5.30;99.90
9125;DHT22;4597;48.730;9.114;2023-04-03T00:47:57;5.30;99.90
9125;DHT22;4597;48.730;9.114;2023-04-03T00:50:26;5.30;99.90
9125;DHT22;4597;48.730;9.114;2023-04-03T00:52:52;5.30;99.90
9125;DHT22;4597;48.730;9.114;2023-04-03T00:55:17;5.30;99.90
9125;DHT22;4597;48.730;9.114;2023-04-03T00:57:44;5.30;99.90
9125;DHT22;4597;48.730;9.114;2023-04-03T01:00:13;5.30;99.90
9125;DHT22;4597;48.730;9.114;2023-04-03T01:02:39;5.20;99.90
9125;DHT22;4597;48.730;9.114;2023-04-03T01:05:08;5.20;99.90
9125;DHT22;4597;48.730;9.114;2023-04-03T01:07:34;5.20;99.90
9125;DHT22;4597;48.730;9.114;2023-04-03T01:10:06;5.20;99.90
9125;DHT22;4597;48.730;9.114;2023-04-03T01:12:38;5.20;99.90
9125;DHT22;4597;48.730;9.114;2023-04-03T01:15:10;5.20;99.90
9125;DHT22;4597;48.730;9.114;2023-04-03T01:17:39;5.20;99.90
9125;DHT22;4597;48.730;9.114;2023-04-03T01:25:31;5.10;99.90
9125;DHT22;4597;48.730;9.114;2023-04-03T01:27:57;5.00;99.90
9125;DHT22;4597;48.730;9.114;2023-04-03T01:30:27;5.00;99.90
9125;DHT22;4597;48.730;9.114;2023-04-03T01:32:55;5.00;99.90
9125;DHT22;4597;48.730;9.114;2023-04-03T01:35:21;5.00;99.90
9125;DHT22;4597;48.730;9.114;2023-04-03T01:37:46;5.00;99.90
9125;DHT22;4597;48.730;9.114;2023-04-03T01:40:12;5.00;99.90
9125;DHT22;4597;48.730;9.114;2023-04-03T01:42:37;5.00;99.90
9125;DHT22;4597;48.730;9.114;2023-04-03T01:45:03;5.00;99.90
9125;DHT22;4597;48.730;9.114;2023-04-03T01:47:29;4.90;99.90
9125;DHT22;4597;48.730;9.114;2023-04-03T01:49:54;4.80;99.90
9125;DHT22;4597;48.730;9.114;2023-04-03T01:52:20;4.80;99.90
9125;DHT22;4597;48.730;9.114;2023-04-03T01:54:45;4.80;99.90
9125;DHT22;4597;48.730;9.114;2023-04-03T01:57:11;4.80;99.90
9125;DHT22;4597;48.730;9.114;2023-04-03T01:59:38;4.80;99.90
9125;DHT22;4597;48.730;9.114;2023-04-03T02:02:04;4.80;99.90
9125;DHT22;4597;48.730;9.114;2023-04-03T02:04:29;4.80;99.90
9125;DHT22;4597;48.730;9.114;2023-04-03T02:06:55;4.80;99.90
9125;DHT22;4597;48.730;9.114;2023-04-03T02:09:20;4.90;99.90
9125;DHT22;4597;48.730;9.114;2023-04-03T02:11:46;4.90;99.90
9125;DHT22;4597;48.730;9.114;2023-04-03T02:14:12;4.80;99.90
9125;DHT22;4597;48.730;9.114;2023-04-03T02:16:37;4.80;99.90
9125;DHT22;4597;48.730;9.114;2023-04-03T02:19:03;4.80;99.90
9125;DHT22;4597;48.730;9.114;2023-04-03T02:21:28;4.80;99.90
9125;DHT22;4597;48.730;9.114;2023-04-03T02:23:54;4.80;99.90
9125;DHT22;4597;48.730;9.114;2023-04-03T02:26:20;4.70;99.90
9125;DHT22;4597;48.730;9.114;2023-04-03T02:28:46;4.80;99.90
9125;DHT22;4597;48.730;9.114;2023-04-03T02:31:12;4.70;99.90
9125;DHT22;4597;48.730;9.114;2023-04-03T02:33:37;4.80;99.90
9125;DHT22;4597;48.730;9.114;2023-04-03T02:36:04;4.70;99.90
9125;DHT22;4597;48.730;9.114;2023-04-03T02:38:31;4.70;99.90
9125;DHT22;4597;48.730;9.114;2023-04-03T02:41:04;4.80;99.90
9125;DHT22;4597;48.730;9.114;2023-04-03T02:43:30;4.70;99.90
9125;DHT22;4597;48.730;9.114;2023-04-03T02:45:55;4.70;99.90
9125;DHT22;4597;48.730;9.114;2023-04-03T02:48:21;4.80;99.90
9125;DHT22;4597;48.730;9.114;2023-04-03T02:50:47;4.90;99.90
9125;DHT22;4597;48.730;9.114;2023-04-03T02:53:12;4.80;99.90
9125;DHT22;4597;48.730;9.114;2023-04-03T02:55:38;4.90;99.90
9125;DHT22;4597;48.730;9.114;2023-04-03T02:58:03;4.90;99.90
9125;DHT22;4597;48.730;9.114;2023-04-03T03:00:29;4.80;99.90
9125;DHT22;4597;48.730;9.114;2023-04-03T03:02:55;4.70;99.90
9125;DHT22;4597;48.730;9.114;2023-04-03T03:05:20;4.70;99.90
9125;DHT22;4597;48.730;9.114;2023-04-03T03:07:46;4.60;99.90
9125;DHT22;4597;48.730;9.114;2023-04-03T03:10:12;4.60;99.90
9125;DHT22;4597;48.730;9.114;2023-04-03T03:12:37;4.70;99.90
9125;DHT22;4597;48.730;9.114;2023-04-03T03:15:03;4.70;99.90
9125;DHT22;4597;48.730;9.114;2023-04-03T03:17:29;4.70;99.90
9125;DHT22;4597;48.730;9.114;2023-04-03T03:19:54;4.80;99.90
9125;DHT22;4597;48.730;9.114;2023-04-03T03:22:20;4.80;99.90
9125;DHT22;4597;48.730;9.114;2023-04-03T03:24:45;4.80;99.90
9125;DHT22;4597;48.730;9.114;2023-04-03T03:27:11;4.80;99.90
9125;DHT22;4597;48.730;9.114;2023-04-03T03:29:37;4.80;99.90
9125;DHT22;4597;48.730;9.114;2023-04-03T03:32:03;4.80;99.90
9125;DHT22;4597;48.730;9.114;2023-04-03T03:34:28;4.80;99.90
9125;DHT22;4597;48.730;9.114;2023-04-03T03:36:54;4.80;99.90
9125;DHT22;4597;48.730;9.114;2023-04-03T03:39:20;4.70;99.90
9125;DHT22;4597;48.730;9.114;2023-04-03T03:41:46;4.70;99.90
9125;DHT22;4597;48.730;9.114;2023-04-03T03:44:11;4.70;99.90
9125;DHT22;4597;48.730;9.114;2023-04-03T03:46:37;4.60;99.90
9125;DHT22;4597;48.730;9.114;2023-04-03T03:49:02;4.50;99.90
9125;DHT22;4597;48.730;9.114;2023-04-03T03:51:28;4.50;99.90
9125;DHT22;4597;48.730;9.114;2023-04-03T03:53:53;4.50;99.90
9125;DHT22;4597;48.730;9.114;2023-04-03T03:56:19;4.50;99.90
9125;DHT22;4597;48.730;9.114;2023-04-03T03:58:45;4.60;99.90
9125;DHT22;4597;48.730;9.114;2023-04-03T04:01:11;4.60;99.90
9125;DHT22;4597;48.730;9.114;2023-04-03T04:03:36;4.50;99.90
9125;DHT22;4597;48.730;9.114;2023-04-03T04:06:02;4.30;99.90
9125;DHT22;4597;48.730;9.114;2023-04-03T04:08:28;4.20;99.90
9125;DHT22;4597;48.730;9.114;2023-04-03T04:10:53;4.20;99.90
9125;DHT22;4597;48.730;9.114;2023-04-03T04:13:19;4.30;99.90
9125;DHT22;4597;48.730;9.114;2023-04-03T04:15:45;4.40;99.90
9125;DHT22;4597;48.730;9.114;2023-04-03T04:18:10;4.40;99.90
9125;DHT22;4597;48.730;9.114;2023-04-03T04:20:36;4.50;99.90
9125;DHT22;4597;48.730;9.114;2023-04-03T04:23:01;4.50;99.90
9125;DHT22;4597;48.730;9.114;2023-04-03T04:25:27;4.60;99.90
9125;DHT22;4597;48.730;9.114;2023-04-03T04:27:52;4.60;99.90
9125;DHT22;4597;48.730;9.114;2023-04-03T04:30:18;4.70;99.90
9125;DHT22;4597;48.730;9.114;2023-04-03T04:32:43;4.60;99.90
9125;DHT22;4597;48.730;9.114;2023-04-03T04:35:09;4.60;99.90
9125;DHT22;4597;48.730;9.114;2023-04-03T04:37:35;4.60;99.90
9125;DHT22;4597;48.730;9.114;2023-04-03T04:40:00;4.50;99.90
9125;DHT22;4597;48.730;9.114;2023-04-03T04:42:26;4.60;99.90
9125;DHT22;4597;48.730;9.114;2023-04-03T04:44:51;4.60;99.90
9125;DHT22;4597;48.730;9.114;2023-04-03T04:47:17;4.50;99.90
9125;DHT22;4597;48.730;9.114;2023-04-03T04:49:42;4.50;99.90
9125;DHT22;4597;48.730;9.114;2023-04-03T04:52:08;4.50;99.90
9125;DHT22;4597;48.730;9.114;2023-04-03T04:54:33;4.50;99.90
9125;DHT22;4597;48.730;9.114;2023-04-03T04:56:59;4.40;99.90
9125;DHT22;4597;48.730;9.114;2023-04-03T04:59:25;4.60;99.90
9125;DHT22;4597;48.730;9.114;2023-04-03T05:01:50;4.50;99.90
9125;DHT22;4597;48.730;9.114;2023-04-03T05:04:16;4.50;99.90
9125;DHT22;4597;48.730;9.114;2023-04-03T05:06:41;4.40;99.90
9125;DHT22;4597;48.730;9.114;2023-04-03T05:09:07;4.40;99.90
9125;DHT22;4597;48.730;9.114;2023-04-03T05:11:32;4.30;99.90
9125;DHT22;4597;48.730;9.114;2023-04-03T05:13:58;4.30;99.90
9125;DHT22;4597;48.730;9.114;2023-04-03T05:16:24;4.20;99.90
9125;DHT22;4597;48.730;9.114;2023-04-03T05:18:50;4.10;99.90
9125;DHT22;4597;48.730;9.114;2023-04-03T05:21:16;4.00;99.90
9125;DHT22;4597;48.730;9.114;2023-04-03T05:23:43;4.00;99.90
9125;DHT22;4597;48.730;9.114;2023-04-03T05:26:09;4.10;99.90
9125;DHT22;4597;48.730;9.114;2023-04-03T05:28:35;4.00;99.90
9125;DHT22;4597;48.730;9.114;2023-04-03T05:31:00;3.90;99.90
9125;DHT22;4597;48.730;9.114;2023-04-03T05:33:26;3.90;99.90
9125;DHT22;4597;48.730;9.114;2023-04-03T05:35:53;4.00;99.90
9125;DHT22;4597;48.730;9.114;2023-04-03T05:38:19;3.90;99.90
9125;DHT22;4597;48.730;9.114;2023-04-03T05:40:45;4.00;99.90
9125;DHT22;4597;48.730;9.114;2023-04-03T05:43:10;4.10;99.90
9125;DHT22;4597;48.730;9.114;2023-04-03T05:45:36;4.00;99.90
9125;DHT22;4597;48.730;9.114;2023-04-03T05:48:01;4.10;99.90
9125;DHT22;4597;48.730;9.114;2023-04-03T05:50:27;4.20;99.90
9125;DHT22;4597;48.730;9.114;2023-04-03T05:52:55;4.20;99.90
9125;DHT22;4597;48.730;9.114;2023-04-03T05:55:22;4.30;99.90
9125;DHT22;4597;48.730;9.114;2023-04-03T05:57:47;4.30;99.90
9125;DHT22;4597;48.730;9.114;2023-04-03T06:00:14;4.20;99.90
9125;DHT22;4597;48.730;9.114;2023-04-03T06:02:41;4.30;99.90
9125;DHT22;4597;48.730;9.114;2023-04-03T06:05:07;4.30;99.90
9125;DHT22;4597;48.730;9.114;2023-04-03T06:07:33;4.40;99.90
9125;DHT22;4597;48.730;9.114;2023-04-03T06:09:59;4.40;99.90
9125;DHT22;4597;48.730;9.114;2023-04-03T06:12:25;4.40;99.90
9125;DHT22;4597;48.730;9.114;2023-04-03T06:14:51;4.40;99.90
9125;DHT22;4597;48.730;9.114;2023-04-03T06:17:17;4.50;99.90
9125;DHT22;4597;48.730;9.114;2023-04-03T06:19:43;4.40;99.90
9125;DHT22;4597;48.730;9.114;2023-04-03T06:22:09;4.40;99.90
9125;DHT22;4597;48.730;9.114;2023-04-03T06:24:35;4.40;99.90
9125;DHT22;4597;48.730;9.114;2023-04-03T06:27:01;4.40;99.90
9125;DHT22;4597;48.730;9.114;2023-04-03T06:29:26;4.40;99.90
9125;DHT22;4597;48.730;9.114;2023-04-03T06:31:52;4.40;99.90
9125;DHT22;4597;48.730;9.114;2023-04-03T06:34:18;4.40;99.90
9125;DHT22;4597;48.730;9.114;2023-04-03T06:36:44;4.30;99.90
9125;DHT22;4597;48.730;9.114;2023-04-03T06:39:18;4.30;99.90
9125;DHT22;4597;48.730;9.114;2023-04-03T06:41:45;4.40;99.90
9125;DHT22;4597;48.730;9.114;2023-04-03T06:44:11;4.40;99.90
9125;DHT22;4597;48.730;9.114;2023-04-03T06:46:38;4.40;99.90
9125;DHT22;4597;48.730;9.114;2023-04-03T06:49:05;4.40;99.90
9125;DHT22;4597;48.730;9.114;2023-04-03T06:51:33;4.60;99.90
9125;DHT22;4597;48.730;9.114;2023-04-03T06:53:59;4.70;99.90
9125;DHT22;4597;48.730;9.114;2023-04-03T06:56:26;4.60;99.90
9125;DHT22;4597;48.730;9.114;2023-04-03T06:58:52;4.50;99.90
9125;DHT22;4597;48.730;9.114;2023-04-03T07:01:20;4.60;99.90
9125;DHT22;4597;48.730;9.114;2023-04-03T07:03:46;4.60;99.90
9125;DHT22;4597;48.730;9.114;2023-04-03T07:06:14;4.60;99.90
9125;DHT22;4597;48.730;9.114;2023-04-03T07:08:40;4.70;99.90
9125;DHT22;4597;48.730;9.114;2023-04-03T07:11:06;4.80;99.90
9125;DHT22;4597;48.730;9.114;2023-04-03T07:13:32;4.90;99.90
9125;DHT22;4597;48.730;9.114;2023-04-03T07:15:58;5.00;99.90
9125;DHT22;4597;48.730;9.114;2023-04-03T07:18:24;5.00;99.90
9125;DHT22;4597;48.730;9.114;2023-04-03T07:20:50;5.00;99.90
9125;DHT22;4597;48.730;9.114;2023-04-03T07:23:15;5.00;99.90
9125;DHT22;4597;48.730;9.114;2023-04-03T07:25:45;5.00;99.90
9125;DHT22;4597;48.730;9.114;2023-04-03T07:28:12;5.10;99.90
9125;DHT22;4597;48.730;9.114;2023-04-03T07:30:48;5.10;99.90
9125;DHT22;4597;48.730;9.114;2023-04-03T07:33:15;5.10;99.90
9125;DHT22;4597;48.730;9.114;2023-04-03T07:35:42;5.20;99.90
9125;DHT22;4597;48.730;9.114;2023-04-03T07:38:09;5.10;99.90
9125;DHT22;4597;48.730;9.114;2023-04-03T07:40:35;5.10;99.90
9125;DHT22;4597;48.730;9.114;2023-04-03T07:43:02;5.20;99.90
9125;DHT22;4597;48.730;9.114;2023-04-03T07:45:27;5.20;99.90
9125;DHT22;4597;48.730;9.114;2023-04-03T07:47:53;5.30;99.90
9125;DHT22;4597;48.730;9.114;2023-04-03T07:50:19;5.30;99.90
9125;DHT22;4597;48.730;9.114;2023-04-03T07:52:45;5.40;99.90
9125;DHT22;4597;48.730;9.114;2023-04-03T07:55:11;5.30;99.90
9125;DHT22;4597;48.730;9.114;2023-04-03T07:57:37;5.40;99.90
9125;DHT22;4597;48.730;9.114;2023-04-03T08:00:04;5.50;99.90
9125;DHT22;4597;48.730;9.114;2023-04-03T08:02:30;5.50;99.90
9125;DHT22;4597;48.730;9.114;2023-04-03T08:04:57;5.50;99.90
9125;DHT22;4597;48.730;9.114;2023-04-03T08:07:23;5.70;99.90
9125;DHT22;4597;48.730;9.114;2023-04-03T08:09:49;5.80;99.90
9125;DHT22;4597;48.730;9.114;2023-04-03T08:12:14;5.80;99.90
9125;DHT22;4597;48.730;9.114;2023-04-03T08:14:40;5.80;99.90
9125;DHT22;4597;48.730;9.114;2023-04-03T08:17:06;6.00;99.90
9125;DHT22;4597;48.730;9.114;2023-04-03T08:19:35;6.00;99.90
9125;DHT22;4597;48.730;9.114;2023-04-03T08:22:00;5.90;99.90
9125;DHT22;4597;48.730;9.114;2023-04-03T08:24:28;5.90;99.90
9125;DHT22;4597;48.730;9.114;2023-04-03T08:26:54;5.90;99.90
9125;DHT22;4597;48.730;9.114;2023-04-03T08:29:20;5.90;99.90
9125;DHT22;4597;48.730;9.114;2023-04-03T08:31:46;6.00;99.90
9125;DHT22;4597;48.730;9.114;2023-04-03T08:34:12;6.00;99.90
9125;DHT22;4597;48.730;9.114;2023-04-03T08:36:38;6.10;99.90
9125;DHT22;4597;48.730;9.114;2023-04-03T08:39:04;6.10;99.90
9125;DHT22;4597;48.730;9.114;2023-04-03T08:41:38;6.20;99.90
9125;DHT22;4597;48.730;9.114;2023-04-03T08:44:14;6.30;99.90
9125;DHT22;4597;48.730;9.114;2023-04-03T08:49:32;6.40;99.90
9125;DHT22;4597;48.730;9.114;2023-04-03T08:52:02;6.20;99.90
9125;DHT22;4597;48.730;9.114;2023-04-03T08:54:57;6.10;99.90
9125;DHT22;4597;48.730;9.114;2023-04-03T09:00:01;6.30;99.90
9125;DHT22;4597;48.730;9.114;2023-04-03T09:02:57;6.40;99.90
9125;DHT22;4597;48.730;9.114;2023-04-03T09:05:39;6.40;99.90
9125;DHT22;4597;48.730;9.114;2023-04-03T09:10:49;6.80;99.90
9125;DHT22;4597;48.730;9.114;2023-04-03T09:15:50;6.70;99.90
9125;DHT22;4597;48.730;9.114;2023-04-03T09:18:21;6.90;99.90
9125;DHT22;4597;48.730;9.114;2023-04-03T09:21:08;6.80;99.90
9125;DHT22;4597;48.730;9.114;2023-04-03T09:24:06;6.80;99.90
9125;DHT22;4597;48.730;9.114;2023-04-03T09:26:44;6.80;99.90
9125;DHT22;4597;48.730;9.114;2023-04-03T09:29:17;6.80;99.90
9125;DHT22;4597;48.730;9.114;2023-04-03T09:31:45;7.00;99.90
9125;DHT22;4597;48.730;9.114;2023-04-03T09:34:30;7.00;99.90
9125;DHT22;4597;48.730;9.114;2023-04-03T09:36:58;7.00;99.90
9125;DHT22;4597;48.730;9.114;2023-04-03T09:39:26;7.10;99.90
9125;DHT22;4597;48.730;9.114;2023-04-03T09:42:01;7.30;99.90
9125;DHT22;4597;48.730;9.114;2023-04-03T09:44:38;7.30;99.90
9125;DHT22;4597;48.730;9.114;2023-04-03T09:47:24;7.40;99.90
9125;DHT22;4597;48.730;9.114;2023-04-03T09:49:51;7.40;99.90
9125;DHT22;4597;48.730;9.114;2023-04-03T09:52:34;7.40;99.90
9125;DHT22;4597;48.730;9.114;2023-04-03T09:55:07;7.50;99.90
9125;DHT22;4597;48.730;9.114;2023-04-03T09:57:33;7.50;99.90
9125;DHT22;4597;48.730;9.114;2023-04-03T10:00:01;7.40;99.90
9125;DHT22;4597;48.730;9.114;2023-04-03T10:02:40;7.50;99.90
9125;DHT22;4597;48.730;9.114;2023-04-03T10:05:39;7.70;99.90
9125;DHT22;4597;48.730;9.114;2023-04-03T10:10:40;7.80;98.70
9125;DHT22;4597;48.730;9.114;2023-04-03T10:13:09;8.00;98.40
9125;DHT22;4597;48.730;9.114;2023-04-03T10:15:41;8.00;96.80
9125;DHT22;4597;48.730;9.114;2023-04-03T10:18:27;8.00;97.00
9125;DHT22;4597;48.730;9.114;2023-04-03T10:20:59;8.00;96.60
9125;DHT22;4597;48.730;9.114;2023-04-03T10:23:42;8.00;96.40
9125;DHT22;4597;48.730;9.114;2023-04-03T10:26:29;8.10;95.60
9125;DHT22;4597;48.730;9.114;2023-04-03T10:29:20;8.00;94.40
9125;DHT22;4597;48.730;9.114;2023-04-03T10:32:26;7.80;94.50
9125;DHT22;4597;48.730;9.114;2023-04-03T10:35:08;7.50;95.30
9125;DHT22;4597;48.730;9.114;2023-04-03T10:40:38;7.70;92.10
9125;DHT22;4597;48.730;9.114;2023-04-03T10:46:11;7.80;95.50
9125;DHT22;4597;48.730;9.114;2023-04-03T10:51:46;7.90;94.40
9125;DHT22;4597;48.730;9.114;2023-04-03T10:54:20;7.90;92.10
9125;DHT22;4597;48.730;9.114;2023-04-03T10:56:55;8.00;93.20
9125;DHT22;4597;48.730;9.114;2023-04-03T10:59:29;8.00;93.10
9125;DHT22;4597;48.730;9.114;2023-04-03T11:02:00;8.00;92.50
9125;DHT22;4597;48.730;9.114;2023-04-03T11:04:30;8.10;92.50
9125;DHT22;4597;48.730;9.114;2023-04-03T11:07:02;8.20;92.30
9125;DHT22;4597;48.730;9.114;2023-04-03T11:09:34;8.20;91.40
9125;DHT22;4597;48.730;9.114;2023-04-03T11:12:23;8.30;92.60
9125;DHT22;4597;48.730;9.114;2023-04-03T11:14:51;8.30;93.00
9125;DHT22;4597;48.730;9.114;2023-04-03T11:22:32;8.30;90.10
9125;DHT22;4597;48.730;9.114;2023-04-03T11:25:20;8.40;87.20
9125;DHT22;4597;48.730;9.114;2023-04-03T11:27:58;8.60;84.20
9125;DHT22;4597;48.730;9.114;2023-04-03T11:30:30;8.60;84.10
9125;DHT22;4597;48.730;9.114;2023-04-03T11:33:13;8.60;83.80
9125;DHT22;4597;48.730;9.114;2023-04-03T11:35:48;8.50;87.50
9125;DHT22;4597;48.730;9.114;2023-04-03T11:38:25;8.50;88.00
9125;DHT22;4597;48.730;9.114;2023-04-03T11:40:53;8.50;87.50
9125;DHT22;4597;48.730;9.114;2023-04-03T11:43:27;8.50;86.70
9125;DHT22;4597;48.730;9.114;2023-04-03T11:45:59;8.50;86.40
9125;DHT22;4597;48.730;9.114;2023-04-03T11:50:57;8.30;86.20
9125;DHT22;4597;48.730;9.114;2023-04-03T11:56:02;8.20;87.20
9125;DHT22;4597;48.730;9.114;2023-04-03T11:58:33;8.20;87.30
9125;DHT22;4597;48.730;9.114;2023-04-03T12:01:08;8.30;85.60
9125;DHT22;4597;48.730;9.114;2023-04-03T12:04:03;8.30;82.20
9125;DHT22;4597;48.730;9.114;2023-04-03T12:08:58;8.30;79.10
9125;DHT22;4597;48.730;9.114;2023-04-03T12:11:29;8.30;80.90
9125;DHT22;4597;48.730;9.114;2023-04-03T12:16:29;8.50;84.50
9125;DHT22;4597;48.730;9.114;2023-04-03T12:40:45;8.50;74.60
9125;DHT22;4597;48.730;9.114;2023-04-03T12:45:58;8.60;76.00
9125;DHT22;4597;48.730;9.114;2023-04-03T12:48:30;8.70;75.00
9125;DHT22;4597;48.730;9.114;2023-04-03T12:50:57;8.70;75.70
9125;DHT22;4597;48.730;9.114;2023-04-03T12:53:28;8.60;76.30
9125;DHT22;4597;48.730;9.114;2023-04-03T12:56:19;8.80;74.60
9125;DHT22;4597;48.730;9.114;2023-04-03T12:58:46;8.60;76.70
9125;DHT22;4597;48.730;9.114;2023-04-03T13:01:14;8.70;76.40
9125;DHT22;4597;48.730;9.114;2023-04-03T13:03:45;8.80;76.10
9125;DHT22;4597;48.730;9.114;2023-04-03T13:06:17;9.00;71.40
9125;DHT22;4597;48.730;9.114;2023-04-03T13:08:51;9.00;70.00
9125;DHT22;4597;48.730;9.114;2023-04-03T13:11:18;9.10;72.20
9125;DHT22;4597;48.730;9.114;2023-04-03T13:14:00;9.20;67.40
9125;DHT22;4597;48.730;9.114;2023-04-03T13:16:27;9.20;65.20
9125;DHT22;4597;48.730;9.114;2023-04-03T13:18:53;9.40;65.20
9125;DHT22;4597;48.730;9.114;2023-04-03T13:21:26;9.40;66.40
9125;DHT22;4597;48.730;9.114;2023-04-03T13:23:55;9.30;66.50
9125;DHT22;4597;48.730;9.114;2023-04-03T13:26:23;9.30;68.00
9125;DHT22;4597;48.730;9.114;2023-04-03T13:28:49;9.20;65.20
9125;DHT22;4597;48.730;9.114;2023-04-03T13:31:25;9.30;63.30
9125;DHT22;4597;48.730;9.114;2023-04-03T13:36:24;9.20;61.20
9125;DHT22;4597;48.730;9.114;2023-04-03T13:39:06;9.20;61.40
9125;DHT22;4597;48.730;9.114;2023-04-03T13:41:36;9.20;62.00
9125;DHT22;4597;48.730;9.114;2023-04-03T13:44:28;9.30;62.60
9125;DHT22;4597;48.730;9.114;2023-04-03T13:51:48;9.20;62.40
9125;DHT22;4597;48.730;9.114;2023-04-03T13:56:55;9.10;60.30
9125;DHT22;4597;48.730;9.114;2023-04-03T13:59:35;9.10;61.50
9125;DHT22;4597;48.730;9.114;2023-04-03T14:07:03;9.20;59.40
9125;DHT22;4597;48.730;9.114;2023-04-03T14:09:29;9.10;57.50
9125;DHT22;4597;48.730;9.114;2023-04-03T14:11:59;9.30;58.50
9125;DHT22;4597;48.730;9.114;2023-04-03T14:14:31;9.30;59.00
9125;DHT22;4597;48.730;9.114;2023-04-03T14:17:00;9.30;59.00
9125;DHT22;4597;48.730;9.114;2023-04-03T14:19:34;9.40;59.80
9125;DHT22;4597;48.730;9.114;2023-04-03T14:22:06;9.20;60.00
9125;DHT22;4597;48.730;9.114;2023-04-03T14:24:32;8.90;59.30
9125;DHT22;4597;48.730;9.114;2023-04-03T14:26:58;8.90;59.90
9125;DHT22;4597;48.730;9.114;2023-04-03T14:29:24;9.00;61.80
9125;DHT22;4597;48.730;9.114;2023-04-03T14:31:51;9.10;58.50
9125;DHT22;4597;48.730;9.114;2023-04-03T14:34:16;9.20;57.40
9125;DHT22;4597;48.730;9.114;2023-04-03T14:36:44;9.30;58.40
9125;DHT22;4597;48.730;9.114;2023-04-03T14:39:18;9.40;58.40
9125;DHT22;4597;48.730;9.114;2023-04-03T14:41:44;9.30;56.60
9125;DHT22;4597;48.730;9.114;2023-04-03T14:44:09;9.30;55.70
9125;DHT22;4597;48.730;9.114;2023-04-03T14:46:37;9.40;56.20
9125;DHT22;4597;48.730;9.114;2023-04-03T14:49:21;9.60;56.20
9125;DHT22;4597;48.730;9.114;2023-04-03T14:51:47;9.90;56.30
9125;DHT22;4597;48.730;9.114;2023-04-03T14:54:16;10.00;52.40
9125;DHT22;4597;48.730;9.114;2023-04-03T14:56:42;10.00;53.30
9125;DHT22;4597;48.730;9.114;2023-04-03T14:59:12;9.90;55.70
9125;DHT22;4597;48.730;9.114;2023-04-03T15:01:38;9.90;56.10
9125;DHT22;4597;48.730;9.114;2023-04-03T15:04:12;9.90;54.20
9125;DHT22;4597;48.730;9.114;2023-04-03T15:06:38;9.90;54.70
9125;DHT22;4597;48.730;9.114;2023-04-03T15:09:03;10.00;53.90
9125;DHT22;4597;48.730;9.114;2023-04-03T15:11:29;9.90;55.20
9125;DHT22;4597;48.730;9.114;2023-04-03T15:13:54;9.90;53.50
9125;DHT22;4597;48.730;9.114;2023-04-03T15:16:20;9.90;52.10
9125;DHT22;4597;48.730;9.114;2023-04-03T15:18:48;10.00;49.10
9125;DHT22;4597;48.730;9.114;2023-04-03T15:21:14;10.00;47.40
9125;DHT22;4597;48.730;9.114;2023-04-03T15:23:39;10.00;50.20
9125;DHT22;4597;48.730;9.114;2023-04-03T15:26:05;10.00;51.60
9125;DHT22;4597;48.730;9.114;2023-04-03T15:28:34;9.90;52.20
9125;DHT22;4597;48.730;9.114;2023-04-03T15:31:00;9.80;53.20
9125;DHT22;4597;48.730;9.114;2023-04-03T15:33:27;9.70;53.40
9125;DHT22;4597;48.730;9.114;2023-04-03T15:35:53;9.50;53.70
9125;DHT22;4597;48.730;9.114;2023-04-03T15:38:19;9.30;54.20
9125;DHT22;4597;48.730;9.114;2023-04-03T15:40:45;9.50;55.60
9125;DHT22;4597;48.730;9.114;2023-04-03T15:43:12;10.20;52.40
9125;DHT22;4597;48.730;9.114;2023-04-03T15:45:38;10.90;49.40
9125;DHT22;4597;48.730;9.114;2023-04-03T15:48:04;11.60;45.70
9125;DHT22;4597;48.730;9.114;2023-04-03T15:50:32;12.30;44.20
9125;DHT22;4597;48.730;9.114;2023-04-03T15:52:57;12.80;44.10
9125;DHT22;4597;48.730;9.114;2023-04-03T15:55:31;12.60;41.40
9125;DHT22;4597;48.730;9.114;2023-04-03T15:57:57;12.10;41.80
9125;DHT22;4597;48.730;9.114;2023-04-03T16:00:24;11.70;41.00
9125;DHT22;4597;48.730;9.114;2023-04-03T16:02:56;11.40;41.70
9125;DHT22;4597;48.730;9.114;2023-04-03T16:05:23;11.30;42.00
9125;DHT22;4597;48.730;9.114;2023-04-03T16:07:49;11.40;42.50
9125;DHT22;4597;48.730;9.114;2023-04-03T16:10:16;11.20;43.70
9125;DHT22;4597;48.730;9.114;2023-04-03T16:12:42;11.50;44.90
9125;DHT22;4597;48.730;9.114;2023-04-03T16:15:08;12.00;42.60
9125;DHT22;4597;48.730;9.114;2023-04-03T16:17:36;12.50;41.00
9125;DHT22;4597;48.730;9.114;2023-04-03T16:20:03;12.50;40.00
9125;DHT22;4597;48.730;9.114;2023-04-03T16:22:29;12.10;39.00
9125;DHT22;4597;48.730;9.114;2023-04-03T16:24:55;11.70;39.60
9125;DHT22;4597;48.730;9.114;2023-04-03T16:27:21;11.30;39.50
9125;DHT22;4597;48.730;9.114;2023-04-03T16:29:47;10.90;40.30
9125;DHT22;4597;48.730;9.114;2023-04-03T16:32:13;10.50;41.10
9125;DHT22;4597;48.730;9.114;2023-04-03T16:34:39;10.40;42.70
9125;DHT22;4597;48.730;9.114;2023-04-03T16:37:05;10.30;42.50
9125;DHT22;4597;48.730;9.114;2023-04-03T16:39:34;10.30;43.70
9125;DHT22;4597;48.730;9.114;2023-04-03T16:41:59;10.20;44.70
9125;DHT22;4597;48.730;9.114;2023-04-03T16:44:25;10.00;45.20
9125;DHT22;4597;48.730;9.114;2023-04-03T16:46:51;9.80;45.90
9125;DHT22;4597;48.730;9.114;2023-04-03T16:49:17;9.80;44.50
9125;DHT22;4597;48.730;9.114;2023-04-03T16:51:42;9.60;43.90
9125;DHT22;4597;48.730;9.114;2023-04-03T16:54:08;9.50;44.90
9125;DHT22;4597;48.730;9.114;2023-04-03T16:56:36;9.60;45.50
9125;DHT22;4597;48.730;9.114;2023-04-03T16:59:01;9.60;45.90
9125;DHT22;4597;48.730;9.114;2023-04-03T17:01:27;9.40;46.20
9125;DHT22;4597;48.730;9.114;2023-04-03T17:03:52;9.40;46.90
9125;DHT22;4597;48.730;9.114;2023-04-03T17:06:19;9.40;47.10
9125;DHT22;4597;48.730;9.114;2023-04-03T17:08:47;9.30;48.00
9125;DHT22;4597;48.730;9.114;2023-04-03T17:11:13;9.20;46.30
9125;DHT22;4597;48.730;9.114;2023-04-03T17:13:39;9.10;47.20
9125;DHT22;4597;48.730;9.114;2023-04-03T17:16:08;8.90;47.90
9125;DHT22;4597;48.730;9.114;2023-04-03T17:18:34;8.70;48.60
9125;DHT22;4597;48.730;9.114;2023-04-03T17:21:01;8.60;50.20
9125;DHT22;4597;48.730;9.114;2023-04-03T17:23:27;8.60;50.20
9125;DHT22;4597;48.730;9.114;2023-04-03T17:25:54;8.60;49.40
9125;DHT22;4597;48.730;9.114;2023-04-03T17:28:20;8.40;48.80
9125;DHT22;4597;48.730;9.114;2023-04-03T17:30:47;8.30;50.20
9125;DHT22;4597;48.730;9.114;2023-04-03T17:33:13;8.30;50.40
9125;DHT22;4597;48.730;9.114;2023-04-03T17:35:38;8.30;49.80
9125;DHT22;4597;48.730;9.114;2023-04-03T17:38:04;8.30;49.70
9125;DHT22;4597;48.730;9.114;2023-04-03T17:40:29;8.20;49.90
9125;DHT22;4597;48.730;9.114;2023-04-03T17:42:55;8.00;49.80
9125;DHT22;4597;48.730;9.114;2023-04-03T17:45:21;8.10;50.70
9125;DHT22;4597;48.730;9.114;2023-04-03T17:47:46;8.00;49.50